createdAt,value
2022-12-23T00:00:30.267Z,1.70
2022-12-23T00:02:58.461Z,1.77
2022-12-23T00:05:27.744Z,1.81
2022-12-23T00:07:59.899Z,1.87
2022-12-23T00:10:28.436Z,1.89
2022-12-23T00:13:14.030Z,1.87
2022-12-23T00:15:42.222Z,1.85
2022-12-23T00:18:10.300Z,1.84
2022-12-23T00:20:38.362Z,1.80
2022-12-23T00:23:10.639Z,1.77
2022-12-23T00:25:44.853Z,1.82
2022-12-23T00:28:15.110Z,1.84
2022-12-23T00:30:47.054Z,1.86
2022-12-23T00:33:16.261Z,1.86
2022-12-23T00:35:45.765Z,1.89
2022-12-23T00:38:15.686Z,1.89
2022-12-23T00:41:01.314Z,1.89
2022-12-23T00:43:33.148Z,1.92
2022-12-23T00:46:01.225Z,1.98
2022-12-23T00:48:47.085Z,2.01
2022-12-23T00:51:15.322Z,2.03
2022-12-23T00:53:45.368Z,2.03
2022-12-23T00:56:13.403Z,2.03
2022-12-23T00:58:41.406Z,2.07
2022-12-23T01:01:27.496Z,2.06
2022-12-23T01:04:13.243Z,2.03
2022-12-23T01:06:41.837Z,2.02
2022-12-23T01:09:11.855Z,1.98
2022-12-23T01:11:40.320Z,1.96
2022-12-23T01:14:11.987Z,1.94
2022-12-23T01:16:40.913Z,1.93
2022-12-23T01:19:09.523Z,1.94
2022-12-23T01:21:38.086Z,1.93
2022-12-23T01:24:06.803Z,1.93
2022-12-23T01:26:36.610Z,1.93
2022-12-23T01:29:05.127Z,1.91
2022-12-23T01:31:35.651Z,1.86
2022-12-23T01:34:04.224Z,1.81
2022-12-23T01:36:32.530Z,1.77
2022-12-23T01:39:00.865Z,1.75
2022-12-23T01:41:49.232Z,1.76
2022-12-23T01:44:56.511Z,1.84
2022-12-23T01:47:35.483Z,1.87
2022-12-23T01:50:08.917Z,1.89
2022-12-23T01:52:42.781Z,1.93
2022-12-23T01:55:12.091Z,1.96
2022-12-23T01:57:44.164Z,2.02
2022-12-23T02:00:32.588Z,2.09
2022-12-23T02:03:19.098Z,2.15
2022-12-23T02:05:48.294Z,2.19
2022-12-23T02:08:34.471Z,2.24
2022-12-23T02:11:23.521Z,2.27
2022-12-23T02:14:16.277Z,2.28
2022-12-23T02:16:52.449Z,2.34
2022-12-23T02:19:34.943Z,2.38
2022-12-23T02:22:21.193Z,2.44
2022-12-23T02:25:19.139Z,2.52
2022-12-23T02:28:04.561Z,2.60
2022-12-23T02:30:45.300Z,2.66
2022-12-23T02:33:34.027Z,2.69
2022-12-23T02:36:19.817Z,2.73
2022-12-23T02:38:58.243Z,2.74
2022-12-23T02:41:35.576Z,2.78
2022-12-23T02:44:13.290Z,2.79
2022-12-23T02:46:48.231Z,2.77
2022-12-23T02:49:21.935Z,2.74
2022-12-23T02:51:53.858Z,2.71
2022-12-23T02:54:26.685Z,2.68
2022-12-23T02:56:58.395Z,2.68
2022-12-23T02:59:31.618Z,2.67
2022-12-23T03:02:02.700Z,2.67
2022-12-23T03:04:30.819Z,2.66
2022-12-23T03:07:04.479Z,2.66
2022-12-23T03:09:53.599Z,2.65
2022-12-23T03:12:31.313Z,2.63
2022-12-23T03:15:12.245Z,2.60
2022-12-23T03:17:57.491Z,2.58
2022-12-23T03:20:32.248Z,2.62
2022-12-23T03:23:05.098Z,2.69
2022-12-23T03:25:37.238Z,2.71
2022-12-23T03:28:12.432Z,2.75
2022-12-23T03:30:44.341Z,2.79
2022-12-23T03:33:18.107Z,2.80
2022-12-23T03:35:50.693Z,2.83
2022-12-23T03:38:22.916Z,2.88
2022-12-23T03:40:54.996Z,2.94
2022-12-23T03:43:27.326Z,2.99
2022-12-23T03:46:00.795Z,3.03
2022-12-23T03:48:35.537Z,3.05
2022-12-23T03:51:07.896Z,3.08
2022-12-23T03:53:40.538Z,3.11
2022-12-23T03:56:13.115Z,3.15
2022-12-23T03:58:46.430Z,3.19
2022-12-23T04:01:41.028Z,3.20
2022-12-23T04:04:16.451Z,3.23
2022-12-23T04:06:53.045Z,3.28
2022-12-23T04:09:24.388Z,3.33
2022-12-23T04:11:53.327Z,3.39
2022-12-23T04:14:23.087Z,3.39
2022-12-23T04:16:55.856Z,3.40
2022-12-23T04:19:28.018Z,3.48
2022-12-23T04:21:57.892Z,3.59
2022-12-23T04:24:26.128Z,3.78
2022-12-23T04:26:54.342Z,3.89
2022-12-23T04:29:22.436Z,3.94
2022-12-23T04:31:50.806Z,4.09
2022-12-23T04:34:18.836Z,4.20
2022-12-23T04:36:48.328Z,4.34
2022-12-23T04:39:16.300Z,4.46
2022-12-23T04:41:44.315Z,4.55
2022-12-23T04:44:12.302Z,4.68
2022-12-23T04:46:41.109Z,4.76
2022-12-23T04:49:10.642Z,4.84
2022-12-23T04:51:38.771Z,4.92
2022-12-23T04:54:08.359Z,4.96
2022-12-23T04:56:36.473Z,5.02
2022-12-23T04:59:04.895Z,5.10
2022-12-23T05:01:33.036Z,5.19
2022-12-23T05:04:01.211Z,5.25
2022-12-23T05:06:29.668Z,5.27
2022-12-23T05:08:57.758Z,5.31
2022-12-23T05:11:29.000Z,5.37
2022-12-23T05:13:57.075Z,5.43
2022-12-23T05:16:25.732Z,5.51
2022-12-23T05:18:53.868Z,5.61
2022-12-23T05:21:21.929Z,5.62
2022-12-23T05:23:50.193Z,5.65
2022-12-23T05:26:18.229Z,5.71
2022-12-23T05:28:47.706Z,5.74
2022-12-23T05:31:17.399Z,5.81
2022-12-23T05:33:47.868Z,5.89
2022-12-23T05:36:16.154Z,5.93
2022-12-23T05:38:44.423Z,5.96
2022-12-23T05:41:12.547Z,6.01
2022-12-23T05:43:40.607Z,6.05
2022-12-23T05:46:10.246Z,6.08
2022-12-23T05:48:38.310Z,6.11
2022-12-23T05:51:06.658Z,6.14
2022-12-23T05:53:34.935Z,6.16
2022-12-23T05:56:06.380Z,6.19
2022-12-23T05:58:34.457Z,6.22
2022-12-23T06:01:03.400Z,6.26
2022-12-23T06:03:33.125Z,6.31
2022-12-23T06:06:01.399Z,6.33
2022-12-23T06:08:29.547Z,6.36
2022-12-23T06:11:00.003Z,6.40
2022-12-23T06:13:28.300Z,6.42
2022-12-23T06:15:56.383Z,6.45
2022-12-23T06:18:24.695Z,6.46
2022-12-23T06:20:54.658Z,6.49
2022-12-23T06:23:24.780Z,6.53
2022-12-23T06:26:01.852Z,6.58
2022-12-23T06:28:31.086Z,6.61
2022-12-23T06:30:59.598Z,6.61
2022-12-23T06:33:27.705Z,6.61
2022-12-23T06:35:57.621Z,6.64
2022-12-23T06:38:26.021Z,6.67
2022-12-23T06:40:54.417Z,6.67
2022-12-23T06:43:23.711Z,6.67
2022-12-23T06:45:52.157Z,6.68
2022-12-23T06:48:20.675Z,6.68
2022-12-23T06:50:48.885Z,6.70
2022-12-23T06:53:18.970Z,6.72
2022-12-23T06:55:47.269Z,6.74
2022-12-23T06:58:15.306Z,6.75
2022-12-23T07:00:43.682Z,6.75
2022-12-23T07:03:12.053Z,6.72
2022-12-23T07:05:40.565Z,6.76
2022-12-23T07:08:08.692Z,6.76
2022-12-23T07:10:39.368Z,6.77
2022-12-23T07:13:07.480Z,6.79
2022-12-23T07:15:35.533Z,6.80
2022-12-23T07:18:03.696Z,6.80
2022-12-23T07:20:31.870Z,6.83
2022-12-23T07:23:00.218Z,6.82
2022-12-23T07:25:28.924Z,6.85
2022-12-23T07:27:58.681Z,6.86
2022-12-23T07:30:27.069Z,6.86
2022-12-23T07:32:59.370Z,6.86
2022-12-23T07:35:27.430Z,6.84
2022-12-23T07:37:57.049Z,6.84
2022-12-23T07:40:26.005Z,6.80
2022-12-23T07:42:58.175Z,6.76
2022-12-23T07:45:29.274Z,6.68
2022-12-23T07:48:00.213Z,6.61
2022-12-23T07:50:29.107Z,6.55
2022-12-23T07:52:57.198Z,6.49
2022-12-23T07:55:26.401Z,6.43
2022-12-23T07:57:54.721Z,6.37
2022-12-23T08:00:24.950Z,6.33
2022-12-23T08:02:54.484Z,6.28
2022-12-23T08:05:23.170Z,6.24
2022-12-23T08:07:52.879Z,6.19
2022-12-23T08:10:21.456Z,6.16
2022-12-23T08:12:49.493Z,6.17
2022-12-23T08:15:17.557Z,6.11
2022-12-23T08:17:46.008Z,6.11
2022-12-23T08:20:16.040Z,6.10
2022-12-23T08:22:44.477Z,6.09
2022-12-23T08:25:12.948Z,6.07
2022-12-23T08:27:41.024Z,6.06
2022-12-23T08:30:10.743Z,6.06
2022-12-23T08:32:39.245Z,6.06
2022-12-23T08:35:08.169Z,6.08
2022-12-23T08:37:38.066Z,6.09
2022-12-23T08:40:07.431Z,6.10
2022-12-23T08:42:35.987Z,6.08
2022-12-23T08:45:04.915Z,6.10
2022-12-23T08:47:33.201Z,6.10
2022-12-23T08:50:01.490Z,6.11
2022-12-23T08:52:29.972Z,6.11
2022-12-23T08:55:01.985Z,6.13
2022-12-23T08:57:30.185Z,6.14
2022-12-23T08:59:58.464Z,6.15
2022-12-23T09:02:30.089Z,6.16
2022-12-23T09:05:01.203Z,6.16
2022-12-23T09:07:33.949Z,6.15
2022-12-23T09:10:07.751Z,6.19
2022-12-23T09:12:35.995Z,6.19
2022-12-23T09:15:04.650Z,6.19
2022-12-23T09:17:32.841Z,6.17
2022-12-23T09:20:01.593Z,6.17
2022-12-23T09:22:33.313Z,6.14
2022-12-23T09:25:07.632Z,6.15
2022-12-23T09:27:38.392Z,6.16
2022-12-23T09:30:07.633Z,6.17
2022-12-23T09:32:36.399Z,6.18
2022-12-23T09:35:05.477Z,6.20
2022-12-23T09:37:33.872Z,6.22
2022-12-23T09:40:03.482Z,6.23
2022-12-23T09:42:48.239Z,6.25
2022-12-23T09:45:27.349Z,6.26
2022-12-23T09:47:57.341Z,6.26
2022-12-23T09:50:29.964Z,6.24
2022-12-23T09:53:02.618Z,6.29
2022-12-23T09:55:41.858Z,6.27
2022-12-23T09:58:21.678Z,6.26
2022-12-23T10:01:12.163Z,6.26
2022-12-23T10:03:57.446Z,6.24
2022-12-23T10:06:30.341Z,6.27
2022-12-23T10:09:04.188Z,6.30
2022-12-23T10:11:38.092Z,6.32
2022-12-23T10:14:15.966Z,6.33
2022-12-23T10:16:46.810Z,6.36
2022-12-23T10:19:23.317Z,6.38
2022-12-23T10:21:56.319Z,6.39
2022-12-23T10:24:27.992Z,6.41
2022-12-23T10:26:58.138Z,6.47
2022-12-23T10:29:31.957Z,6.50
2022-12-23T10:32:12.970Z,6.57
2022-12-23T10:34:52.085Z,6.66
2022-12-23T10:37:29.575Z,6.72
2022-12-23T10:40:11.902Z,6.89
2022-12-23T10:42:47.925Z,7.06
2022-12-23T10:45:39.881Z,7.27
2022-12-23T10:48:22.583Z,7.42
2022-12-23T10:51:02.563Z,7.50
2022-12-23T10:53:37.109Z,7.52
2022-12-23T10:56:06.836Z,7.49
2022-12-23T10:58:38.796Z,7.44
2022-12-23T11:01:18.692Z,7.37
2022-12-23T11:04:01.209Z,7.40
2022-12-23T11:06:37.160Z,7.51
2022-12-23T11:09:13.715Z,7.64
2022-12-23T11:11:58.017Z,7.73
2022-12-23T11:14:38.349Z,7.81
2022-12-23T11:17:18.868Z,7.99
2022-12-23T11:19:47.103Z,8.19
2022-12-23T11:22:26.819Z,8.39
2022-12-23T11:24:55.293Z,8.55
2022-12-23T11:27:23.534Z,8.66
2022-12-23T11:29:55.831Z,8.73
2022-12-23T11:32:28.776Z,8.71
2022-12-23T11:35:00.712Z,8.69
2022-12-23T11:37:45.871Z,8.71
2022-12-23T11:40:24.520Z,8.52
2022-12-23T11:42:58.391Z,8.40
2022-12-23T11:45:31.193Z,8.38
2022-12-23T11:48:06.912Z,8.32
2022-12-23T11:50:37.977Z,8.30
2022-12-23T11:53:16.284Z,8.26
2022-12-23T11:56:01.392Z,8.16
2022-12-23T11:58:31.307Z,8.07
2022-12-23T12:01:01.884Z,8.02
2022-12-23T12:03:36.473Z,7.97
2022-12-23T12:06:07.034Z,8.01
2022-12-23T12:08:39.465Z,7.99
2022-12-23T12:11:16.169Z,7.97
2022-12-23T12:13:46.670Z,7.91
2022-12-23T12:16:27.907Z,7.85
2022-12-23T12:19:04.059Z,7.86
2022-12-23T12:21:38.559Z,7.79
2022-12-23T12:24:18.894Z,7.75
2022-12-23T12:26:51.379Z,7.74
2022-12-23T12:29:25.666Z,7.79
2022-12-23T12:31:57.256Z,7.84
2022-12-23T12:34:44.014Z,7.89
2022-12-23T12:37:23.881Z,7.89
2022-12-23T12:39:58.039Z,7.88
2022-12-23T12:42:31.812Z,7.95
2022-12-23T12:45:11.973Z,7.95
2022-12-23T12:48:05.998Z,7.95
2022-12-23T12:50:36.627Z,7.96
2022-12-23T12:53:13.882Z,7.93
2022-12-23T12:55:46.463Z,7.91
2022-12-23T12:58:26.261Z,7.94
2022-12-23T13:01:09.482Z,8.00
2022-12-23T13:04:19.121Z,8.05
2022-12-23T13:06:56.856Z,8.05
2022-12-23T13:09:38.348Z,8.01
2022-12-23T13:12:15.148Z,8.00
2022-12-23T13:15:01.348Z,8.01
2022-12-23T13:17:35.084Z,8.03
2022-12-23T13:20:17.547Z,8.06
2022-12-23T13:22:51.633Z,8.12
2022-12-23T13:25:23.737Z,8.32
2022-12-23T13:27:57.638Z,8.54
2022-12-23T13:30:32.895Z,8.77
2022-12-23T13:33:16.313Z,9.17
2022-12-23T13:40:22.956Z,10.02
2022-12-23T13:43:02.274Z,10.23
2022-12-23T13:45:37.744Z,10.21
2022-12-23T13:48:20.749Z,10.18
2022-12-23T13:50:58.677Z,10.07
2022-12-23T13:53:37.223Z,9.93
2022-12-23T13:56:19.690Z,9.84
2022-12-23T13:58:50.336Z,9.80
2022-12-23T14:01:37.559Z,9.71
2022-12-23T14:04:37.250Z,9.56
2022-12-23T14:07:19.394Z,9.60
2022-12-23T14:09:53.414Z,9.68
2022-12-23T14:12:28.653Z,9.62
2022-12-23T14:15:22.579Z,9.50
2022-12-23T14:18:05.069Z,9.39
2022-12-23T14:20:44.910Z,9.33
2022-12-23T14:23:30.458Z,9.28
2022-12-23T14:26:20.399Z,9.28
2022-12-23T14:29:03.676Z,9.24
2022-12-23T14:31:40.019Z,9.16
2022-12-23T14:34:29.812Z,9.08
2022-12-23T14:37:30.631Z,9.13
2022-12-23T14:39:59.661Z,9.19
2022-12-23T14:42:42.503Z,9.27
2022-12-23T14:45:36.401Z,9.37
2022-12-23T14:48:32.613Z,9.39
2022-12-23T14:51:02.816Z,9.29
2022-12-23T14:53:31.504Z,9.11
2022-12-23T14:56:13.577Z,9.03
2022-12-23T14:59:15.751Z,8.91
2022-12-23T15:01:49.800Z,8.80
2022-12-23T15:04:22.299Z,8.72
2022-12-23T15:06:54.569Z,8.65
2022-12-23T15:09:26.373Z,8.61
2022-12-23T15:11:55.836Z,8.57
2022-12-23T15:14:32.921Z,8.55
2022-12-23T15:17:16.287Z,8.48
2022-12-23T15:19:47.327Z,8.45
2022-12-23T15:22:25.177Z,8.35
2022-12-23T15:24:58.632Z,8.30
2022-12-23T15:27:29.644Z,8.23
2022-12-23T15:29:58.908Z,8.15
2022-12-23T15:32:30.781Z,8.11
2022-12-23T15:35:04.564Z,8.07
2022-12-23T15:37:33.642Z,8.03
2022-12-23T15:40:12.682Z,7.98
2022-12-23T15:42:48.730Z,7.91
2022-12-23T15:45:33.702Z,7.82
2022-12-23T15:48:04.234Z,7.76
2022-12-23T15:50:41.592Z,7.71
2022-12-23T15:53:11.918Z,7.65
2022-12-23T15:55:41.832Z,7.63
2022-12-23T15:58:16.801Z,7.60
2022-12-23T16:00:53.463Z,7.54
2022-12-23T16:03:29.702Z,7.54
2022-12-23T16:06:08.487Z,7.52
2022-12-23T16:08:37.202Z,7.44
2022-12-23T16:11:13.621Z,7.41
2022-12-23T16:13:47.346Z,7.38
2022-12-23T16:16:38.194Z,7.30
2022-12-23T16:19:10.096Z,7.22
2022-12-23T16:21:38.783Z,7.14
2022-12-23T16:24:09.819Z,7.10
2022-12-23T16:26:42.076Z,7.04
2022-12-23T16:29:11.951Z,6.99
2022-12-23T16:31:45.746Z,6.97
2022-12-23T16:34:22.072Z,6.91
2022-12-23T16:36:50.212Z,6.92
2022-12-23T16:39:22.687Z,6.90
2022-12-23T16:41:51.275Z,6.86
2022-12-23T16:44:19.734Z,6.85
2022-12-23T16:46:50.984Z,6.86
2022-12-23T16:49:25.523Z,6.86
2022-12-23T16:51:57.780Z,6.86
2022-12-23T16:54:25.947Z,6.87
2022-12-23T16:56:55.028Z,6.84
2022-12-23T16:59:26.068Z,6.80
2022-12-23T17:01:58.106Z,6.77
2022-12-23T17:04:32.422Z,6.72
2022-12-23T17:07:00.942Z,6.71
2022-12-23T17:09:28.963Z,6.69
2022-12-23T17:11:57.624Z,6.68
2022-12-23T17:14:26.919Z,6.73
2022-12-23T17:16:55.059Z,6.74
2022-12-23T17:19:28.858Z,6.75
2022-12-23T17:22:02.448Z,6.71
2022-12-23T17:24:31.566Z,6.71
2022-12-23T17:26:59.586Z,6.70
2022-12-23T17:29:28.386Z,6.71
2022-12-23T17:31:57.268Z,6.71
2022-12-23T17:34:33.313Z,6.69
2022-12-23T17:37:03.101Z,6.67
2022-12-23T17:39:32.688Z,6.68
2022-12-23T17:42:00.766Z,6.68
2022-12-23T17:44:28.798Z,6.67
2022-12-23T17:47:03.280Z,6.67
2022-12-23T17:49:31.384Z,6.66
2022-12-23T17:51:59.702Z,6.65
2022-12-23T17:54:29.277Z,6.71
2022-12-23T17:56:58.778Z,6.85
2022-12-23T17:59:27.196Z,6.96
2022-12-23T18:01:55.553Z,7.02
2022-12-23T18:04:23.769Z,7.09
2022-12-23T18:06:56.874Z,7.17
2022-12-23T18:09:25.011Z,7.19
2022-12-23T18:11:55.057Z,7.22
2022-12-23T18:14:29.345Z,7.19
2022-12-23T18:16:57.595Z,7.19
2022-12-23T18:19:26.103Z,7.20
2022-12-23T18:21:54.641Z,7.21
2022-12-23T18:24:22.899Z,7.12
2022-12-23T18:26:50.969Z,6.95
2022-12-23T18:29:39.357Z,6.79
2022-12-23T18:32:10.305Z,6.64
2022-12-23T18:34:38.801Z,6.56
2022-12-23T18:37:09.237Z,6.49
2022-12-23T18:39:48.550Z,6.44
2022-12-23T18:42:37.824Z,6.43
2022-12-23T18:45:25.472Z,6.43
2022-12-23T18:48:00.290Z,6.42
2022-12-23T18:50:37.233Z,6.41
2022-12-23T18:53:05.997Z,6.35
2022-12-23T18:55:34.587Z,6.32
2022-12-23T18:58:02.801Z,6.33
2022-12-23T19:00:33.669Z,6.36
2022-12-23T19:03:41.624Z,6.32
2022-12-23T19:06:11.291Z,6.20
2022-12-23T19:08:40.506Z,6.12
2022-12-23T19:11:38.332Z,6.03
2022-12-23T19:14:06.611Z,5.98
2022-12-23T19:16:36.254Z,5.90
2022-12-23T19:19:08.853Z,5.90
2022-12-23T19:21:37.715Z,5.92
2022-12-23T19:24:06.137Z,5.94
2022-12-23T19:26:36.355Z,5.96
2022-12-23T19:29:04.823Z,5.98
2022-12-23T19:31:43.142Z,6.02
2022-12-23T19:34:15.078Z,6.05
2022-12-23T19:36:43.919Z,6.07
2022-12-23T19:39:16.388Z,6.08
2022-12-23T19:41:45.112Z,6.16
2022-12-23T19:44:14.304Z,6.22
2022-12-23T19:46:47.109Z,6.29
2022-12-23T19:49:19.866Z,6.36
2022-12-23T19:51:49.356Z,6.47
2022-12-23T19:54:19.583Z,6.51
2022-12-23T19:56:47.821Z,6.57
2022-12-23T19:59:15.994Z,6.60
2022-12-23T20:01:47.493Z,6.59
2022-12-23T20:04:16.701Z,6.60
2022-12-23T20:06:48.952Z,6.64
2022-12-23T20:09:17.295Z,6.66
2022-12-23T20:11:49.474Z,6.66
2022-12-23T20:14:25.852Z,6.68
2022-12-23T20:16:58.588Z,6.74
2022-12-23T20:19:26.869Z,6.79
2022-12-23T20:21:55.066Z,6.85
2022-12-23T20:24:23.144Z,6.88
2022-12-23T20:26:51.296Z,6.93
2022-12-23T20:29:22.413Z,7.01
2022-12-23T20:31:50.641Z,7.07
2022-12-23T20:34:20.116Z,7.15
2022-12-23T20:36:48.253Z,7.19
2022-12-23T20:39:16.492Z,7.23
2022-12-23T20:41:44.744Z,7.26
2022-12-23T20:47:01.436Z,7.28
2022-12-23T20:49:31.139Z,7.30
2022-12-23T20:51:59.330Z,7.30
2022-12-23T20:54:32.791Z,7.29
2022-12-23T20:57:02.451Z,7.32
2022-12-23T20:59:30.790Z,7.33
2022-12-23T21:01:59.701Z,7.35
2022-12-23T21:04:28.124Z,7.36
2022-12-23T21:06:57.700Z,7.34
2022-12-23T21:09:25.794Z,7.31
2022-12-23T21:11:53.971Z,7.28
2022-12-23T21:14:22.000Z,7.22
2022-12-23T21:16:50.194Z,7.16
2022-12-23T21:19:20.057Z,7.05
2022-12-23T21:21:49.876Z,6.96
2022-12-23T21:24:20.321Z,6.87
2022-12-23T21:26:56.500Z,6.89
2022-12-23T21:29:26.204Z,6.95
2022-12-23T21:31:55.302Z,6.95
2022-12-23T21:34:23.754Z,6.92
2022-12-23T21:36:52.949Z,6.93
2022-12-23T21:39:22.546Z,6.96
2022-12-23T21:41:51.684Z,7.03
2022-12-23T21:44:19.865Z,7.07
2022-12-23T21:46:47.948Z,7.14
2022-12-23T21:49:16.431Z,7.19
2022-12-23T21:51:49.187Z,7.21
2022-12-23T21:54:17.355Z,7.24
2022-12-23T21:56:48.590Z,7.24
2022-12-23T21:59:17.429Z,7.25
2022-12-23T22:01:45.906Z,7.21
2022-12-23T22:04:15.580Z,7.15
2022-12-23T22:06:45.941Z,7.13
2022-12-23T22:09:16.532Z,7.10
2022-12-23T22:11:46.802Z,7.10
2022-12-23T22:14:18.517Z,7.11
2022-12-23T22:16:47.170Z,7.13
2022-12-23T22:19:15.693Z,7.14
2022-12-23T22:21:46.019Z,7.16
2022-12-23T22:24:14.158Z,7.17
2022-12-23T22:26:42.386Z,7.16
2022-12-23T22:29:13.716Z,7.16
2022-12-23T22:31:46.357Z,7.16
2022-12-23T22:34:16.595Z,7.19
2022-12-23T22:36:55.546Z,7.22
2022-12-23T22:39:26.585Z,7.23
2022-12-23T22:41:57.811Z,7.19
2022-12-23T22:44:26.047Z,7.18
2022-12-23T22:46:55.715Z,7.16
2022-12-23T22:49:29.909Z,7.16
2022-12-23T22:51:57.980Z,7.16
2022-12-23T22:54:26.267Z,7.17
2022-12-23T22:56:55.553Z,7.17
2022-12-23T22:59:25.481Z,7.16
2022-12-23T23:01:55.630Z,7.15
2022-12-23T23:04:23.531Z,7.18
2022-12-23T23:06:52.793Z,7.17
2022-12-23T23:09:23.008Z,7.16
2022-12-23T23:11:51.172Z,7.14
2022-12-23T23:14:19.875Z,7.10
2022-12-23T23:16:48.269Z,7.06
2022-12-23T23:19:20.500Z,7.02
2022-12-23T23:21:48.943Z,6.87
2022-12-23T23:24:17.608Z,6.73
2022-12-23T23:26:45.750Z,6.57
2022-12-23T23:29:13.835Z,6.41
2022-12-23T23:31:43.650Z,6.27
2022-12-23T23:34:12.475Z,6.19
2022-12-23T23:36:43.173Z,6.15
2022-12-23T23:39:13.182Z,6.12
2022-12-23T23:41:41.552Z,6.07
2022-12-23T23:44:10.192Z,5.98
2022-12-23T23:46:38.307Z,5.88
2022-12-23T23:49:06.539Z,5.79
2022-12-23T23:51:35.113Z,5.78
2022-12-23T23:54:04.771Z,5.74
2022-12-23T23:56:38.094Z,5.68
2022-12-23T23:59:07.712Z,5.61
